Webberville, Michigan
Current Conditions -  °F | °C
As of 4:15 AM on Wednesday 28 Jan 2015 (Local Time) from KOZW Reporting Station
Clear Clear  
Wind Chill: -2°   Ceiling: Unl
Heat Index:   Visibility: 10mi
Dew Point:   Wind: 5mph
Humidity: 89%   Direction: 250°WSW
Pressure: 30.26"   Gusts: NA
Location:  42.67°N, 84.17°W
Report Text: KOZW 280915Z AUTO 25004KT 10SM CLR M14/M16 A3026 RMK AO2 T11421157
Loading
Personal Weather Stations






























Interactive Weather Map New forecast layout! Learn more

10-Day Weather Forecast

Advertisements
Track Severe Weather on mobile